Weather History for KIKK - November, 2010

Change the Weather History Date:

Sunday, November 7, 2010

  Actual Average Record
Temperature  
Mean Temperature 46 °F -  
Max Temperature 62 °F 50 °F 71 °F (1975)
Min Temperature 30 °F 32 °F 10 °F (1991)
Degree Days  
Heating Degree Days 19    
Moisture  
Dew Point 23 °F    
Average Humidity 45    
Maximum Humidity 64    
Minimum Humidity 25    
Precipitation  
Precipitation 0.00 in - - ()
Sea Level Pressure  
Sea Level Pressure 30.25 in    
Wind  
Wind Speed 12 mph (SSW)    
Max Wind Speed 21 mph    
Max Gust Speed 25 mph    
Visibility 10 miles    
Events      
Averages and records for this station are not official NWS values.
T = Trace of Precipitation, MM = Missing Value Source: NWS Daily Summary

Daily Weather History Graph

Daily Weather History Graph

Search for Another Location

Airport or City:

Trip Planner

Search our weather history database for the weather conditions in past years. The results will help you decide how hot, cold, wet, or windy it might be!

Date:

Astronomy

Nov. 07, 2010 Rise Set
Actual Time 6:29 AM CST 4:40 PM CST
Civil Twilight 6:00 AM CST 5:09 PM CST
Nautical Twilight 5:27 AM CST 5:41 PM CST
Astronomical Twilight 4:55 AM CST 6:14 PM CST
Moon 8:16 AM CST (11/7) 5:37 PM CST (11/7)
Length of Visible Light 11h 08m
Length of Day
10h 10m
Waxing Crescent, 3% of the Moon is Illuminated
Nov 7
Waxing Crescent
Nov 13
First Quarter
Nov 21
Full
Nov 28
Last Quarter
Dec 5
New

Hourly Weather History & Observations

Time (CST) Temp. Windchill Dew Point Humidity Pressure Visibility Wind Dir Wind Speed Gust Speed Precip Events Conditions
12:04 AM 33.8 °F 26.4 °F 19.4 °F 56% 30.36 in 10.0 mi South 9.2 mph - N/A   Clear
12:24 AM 33.8 °F 25.8 °F 19.4 °F 56% 30.36 in 10.0 mi South 10.4 mph - N/A   Clear
12:44 AM 33.8 °F 25.8 °F 19.4 °F 56% 30.36 in 10.0 mi SSW 10.4 mph - N/A   Clear
1:04 AM 33.8 °F 25.8 °F 19.4 °F 56% 30.36 in 10.0 mi South 10.4 mph - N/A   Clear
1:24 AM 33.8 °F 26.4 °F 19.4 °F 56% 30.35 in 10.0 mi South 9.2 mph - N/A   Clear
1:44 AM 33.8 °F 26.4 °F 19.4 °F 56% 30.35 in 10.0 mi South 9.2 mph - N/A   Clear
1:04 AM 33.8 °F 27.0 °F 19.4 °F 56% 30.35 in 10.0 mi South 8.1 mph - N/A   Clear
1:24 AM 32.0 °F 25.6 °F 19.4 °F 60% 30.35 in 10.0 mi SSW 6.9 mph - N/A   Clear
1:44 AM 30.2 °F 22.6 °F 19.4 °F 64% 30.35 in 10.0 mi South 8.1 mph - N/A   Clear
2:04 AM 30.2 °F 22.6 °F 19.4 °F 64% 30.35 in 10.0 mi South 8.1 mph - N/A   Clear
2:24 AM 30.2 °F 21.9 °F 19.4 °F 64% 30.36 in 10.0 mi SSW 9.2 mph - N/A   Clear
2:44 AM 32.0 °F 24.2 °F 19.4 °F 60% 30.36 in 10.0 mi SSW 9.2 mph - N/A   Clear
3:04 AM 32.0 °F 24.2 °F 19.4 °F 60% 30.37 in 10.0 mi South 9.2 mph - N/A   Clear
3:24 AM 30.2 °F 22.6 °F 19.4 °F 64% 30.37 in 10.0 mi South 8.1 mph - N/A   Clear
3:44 AM 32.0 °F 24.8 °F 19.4 °F 60% 30.36 in 10.0 mi South 8.1 mph - N/A   Clear
4:04 AM 32.0 °F 24.2 °F 19.4 °F 60% 30.36 in 10.0 mi South 9.2 mph - N/A   Clear
4:24 AM 32.0 °F 24.8 °F 19.4 °F 60% 30.36 in 10.0 mi South 8.1 mph - N/A   Clear
4:44 AM 32.0 °F 23.6 °F 19.4 °F 60% 30.34 in 10.0 mi South 10.4 mph - N/A   Clear
5:04 AM 33.8 °F 25.3 °F 19.4 °F 56% 30.34 in 10.0 mi South 11.5 mph - N/A   Clear
5:24 AM 33.8 °F 25.3 °F 19.4 °F 56% 30.33 in 10.0 mi South 11.5 mph - N/A   Clear
5:44 AM 32.0 °F 22.5 °F 19.4 °F 60% 30.32 in 10.0 mi South 12.7 mph - N/A   Clear
6:04 AM 32.0 °F 22.5 °F 19.4 °F 60% 30.31 in 10.0 mi South 12.7 mph - N/A   Clear
6:24 AM 33.8 °F 24.8 °F 19.4 °F 56% 30.30 in 10.0 mi South 12.7 mph - N/A   Clear
6:44 AM 33.8 °F 25.3 °F 21.2 °F 60% 30.30 in 10.0 mi South 11.5 mph - N/A   Clear
7:04 AM 33.8 °F 24.3 °F 21.2 °F 60% 30.30 in 10.0 mi South 13.8 mph - N/A   Clear
7:24 AM 35.6 °F 25.9 °F 21.2 °F 56% 30.29 in 10.0 mi South 16.1 mph 23.0 mph N/A   Clear
7:44 AM 37.4 °F 27.8 °F 21.2 °F 52% 30.29 in 10.0 mi South 17.3 mph 23.0 mph N/A   Clear
8:04 AM 39.2 °F 29.8 °F 21.2 °F 49% 30.28 in 10.0 mi South 18.4 mph - N/A   Clear
8:24 AM 42.8 °F 34.3 °F 21.2 °F 42% 30.28 in 10.0 mi SSW 19.6 mph 23.0 mph N/A   Clear
8:44 AM 44.6 °F 37.4 °F 21.2 °F 39% 30.28 in 10.0 mi SSW 16.1 mph 23.0 mph N/A   Clear
9:04 AM 46.4 °F 39.8 °F 21.2 °F 37% 30.28 in 10.0 mi SSW 16.1 mph 25.3 mph N/A   Clear
9:24 AM 48.2 °F - 21.2 °F 34% 30.27 in 10.0 mi SSW 19.6 mph 24.2 mph N/A   Clear
9:44 AM 50.0 °F - 21.2 °F 32% 30.27 in 10.0 mi SSW 19.6 mph 23.0 mph N/A   Clear
10:04 AM 51.8 °F - 21.2 °F 30% 30.26 in 10.0 mi South 16.1 mph 21.9 mph N/A   Clear
10:24 AM 53.6 °F - 21.2 °F 28% 30.24 in 10.0 mi SSW 17.3 mph - N/A   Clear
10:44 AM 55.4 °F - 21.2 °F 26% 30.22 in 10.0 mi SSW 20.7 mph - N/A   Clear
11:04 AM 55.4 °F - 23.0 °F 29% 30.21 in 10.0 mi SSW 19.6 mph 25.3 mph N/A   Clear
11:24 AM 57.2 °F - 24.8 °F 29% 30.20 in 10.0 mi SW 18.4 mph 24.2 mph N/A   Clear
11:44 AM 59.0 °F - 24.8 °F 27% 30.19 in 10.0 mi SW 13.8 mph - N/A   Clear
12:04 PM 60.8 °F - 24.8 °F 25% 30.17 in 10.0 mi SW 18.4 mph 23.0 mph N/A   Clear
12:24 PM 60.8 °F - 26.6 °F 27% 30.16 in 10.0 mi SW 16.1 mph 20.7 mph N/A   Clear
12:44 PM 60.8 °F - 26.6 °F 27% 30.15 in 10.0 mi SW 19.6 mph 23.0 mph N/A   Clear
1:04 PM 62.6 °F - 26.6 °F 26% 30.14 in 10.0 mi SSW 17.3 mph 25.3 mph N/A   Clear
1:24 PM 62.6 °F - 26.6 °F 26% 30.14 in 10.0 mi SSW 16.1 mph - N/A   Clear
1:44 PM 62.6 °F - 26.6 °F 26% 30.13 in 10.0 mi SW 17.3 mph 23.0 mph N/A   Clear
2:04 PM 62.6 °F - 26.6 °F 26% 30.13 in 10.0 mi SW 15.0 mph 24.2 mph N/A   Clear
2:24 PM 62.6 °F - 26.6 °F 26% 30.12 in 10.0 mi SW 13.8 mph 20.7 mph N/A   Clear
2:44 PM 62.6 °F - 26.6 °F 26% 30.12 in 10.0 mi SW 15.0 mph 19.6 mph N/A   Clear
3:04 PM 62.6 °F - 26.6 °F 26% 30.11 in 10.0 mi SW 13.8 mph 20.7 mph N/A   Clear
3:24 PM 62.6 °F - 28.4 °F 27% 30.11 in 10.0 mi SW 11.5 mph - N/A   Clear
3:44 PM 62.6 °F - 28.4 °F 27% 30.10 in 10.0 mi SW 11.5 mph 18.4 mph N/A   Clear
4:04 PM 60.8 °F - 28.4 °F 29% 30.10 in 10.0 mi SW 9.2 mph - N/A   Clear
4:24 PM 55.4 °F - 30.2 °F 38% 30.10 in 10.0 mi SW 9.2 mph - N/A   Clear
4:44 PM 53.6 °F - 30.2 °F 41% 30.09 in 10.0 mi SW 9.2 mph - N/A   Clear
5:04 PM 51.8 °F - 30.2 °F 44% 30.10 in 10.0 mi SSW 5.8 mph - N/A   Clear
5:24 PM 51.8 °F - 30.2 °F 44% 30.10 in 10.0 mi SSW 6.9 mph - N/A   Clear
5:44 PM 51.8 °F - 30.2 °F 44% 30.10 in 10.0 mi SSW 6.9 mph - N/A   Clear
6:04 PM 51.8 °F - 30.2 °F 44% 30.10 in 10.0 mi SSW 9.2 mph - N/A   Clear
6:24 PM 51.8 °F - 30.2 °F 44% 30.10 in 10.0 mi South 6.9 mph - N/A   Clear
6:44 PM 51.8 °F - 30.2 °F 44% 30.10 in 10.0 mi South 8.1 mph - N/A   Clear
7:04 PM 50.0 °F - 28.4 °F 43% 30.10 in 10.0 mi South 8.1 mph - N/A   Clear
7:24 PM 48.2 °F - 28.4 °F 46% 30.10 in 10.0 mi South 6.9 mph - N/A   Clear
7:44 PM 48.2 °F - 28.4 °F 46% 30.10 in 10.0 mi South 6.9 mph - N/A   Clear
8:04 PM 48.2 °F - 28.4 °F 46% 30.09 in 10.0 mi South 5.8 mph - N/A   Clear
8:24 PM 46.4 °F 42.9 °F 28.4 °F 50% 30.09 in 10.0 mi South 6.9 mph - N/A   Clear
8:44 PM 46.4 °F 42.4 °F 28.4 °F 50% 30.09 in 10.0 mi South 8.1 mph - N/A   Clear
9:04 PM 46.4 °F 42.4 °F 28.4 °F 50% 30.09 in 10.0 mi South 8.1 mph - N/A   Clear
9:24 PM 46.4 °F 42.9 °F 26.6 °F 46% 30.09 in 10.0 mi South 6.9 mph - N/A   Clear
9:44 PM 46.4 °F 43.5 °F 26.6 °F 46% 30.09 in 10.0 mi South 5.8 mph - N/A   Clear
10:04 PM 44.6 °F 41.4 °F 26.6 °F 49% 30.09 in 10.0 mi South 5.8 mph - N/A   Clear
10:24 PM 44.6 °F 43.1 °F 26.6 °F 49% 30.09 in 10.0 mi South 3.5 mph - N/A   Clear
10:44 PM 44.6 °F 43.1 °F 26.6 °F 49% 30.09 in 10.0 mi South 3.5 mph - N/A   Clear